createdAt,value
2023-02-06T00:00:46.770Z,2.40
2023-02-06T00:04:49.640Z,2.40
2023-02-06T00:08:52.529Z,2.40
2023-02-06T00:12:56.680Z,2.40
2023-02-06T00:17:01.130Z,2.40
2023-02-06T00:21:04.165Z,2.50
2023-02-06T00:25:07.758Z,2.50
2023-02-06T00:29:11.910Z,2.50
2023-02-06T00:33:14.748Z,2.50
2023-02-06T00:37:17.628Z,2.60
2023-02-06T00:41:20.449Z,2.60
2023-02-06T00:45:24.589Z,2.60
2023-02-06T00:49:27.375Z,2.70
2023-02-06T00:53:30.202Z,2.70
2023-02-06T00:57:32.991Z,2.70
2023-02-06T01:01:37.209Z,2.70
2023-02-06T01:05:40.164Z,2.70
2023-02-06T01:09:42.999Z,2.70
2023-02-06T01:13:45.866Z,2.70
2023-02-06T01:17:49.968Z,2.60
2023-02-06T01:21:52.771Z,2.60
2023-02-06T01:25:55.594Z,2.60
2023-02-06T01:29:58.397Z,2.50
2023-02-06T01:34:02.646Z,2.50
2023-02-06T01:38:05.437Z,2.40
2023-02-06T01:42:08.220Z,2.40
2023-02-06T01:46:11.301Z,2.30
2023-02-06T01:50:15.562Z,2.30
2023-02-06T01:54:18.450Z,2.30
2023-02-06T01:58:25.250Z,2.20
2023-02-06T02:02:28.960Z,2.10
2023-02-06T02:06:33.411Z,2.10
2023-02-06T02:10:36.235Z,2.00
2023-02-06T02:14:40.505Z,2.00
2023-02-06T02:18:50.446Z,1.90
2023-02-06T02:23:00.467Z,1.80
2023-02-06T02:27:24.139Z,1.80
2023-02-06T02:31:45.959Z,1.70
2023-02-06T02:35:55.079Z,1.60
2023-02-06T02:40:00.709Z,1.60
2023-02-06T02:44:06.165Z,1.50
2023-02-06T02:48:11.936Z,1.50
2023-02-06T02:52:16.302Z,1.40
2023-02-06T02:56:21.012Z,1.40
2023-02-06T03:00:24.532Z,1.40
2023-02-06T03:04:31.523Z,1.30
2023-02-06T03:08:39.040Z,1.30
2023-02-06T03:12:45.392Z,1.30
2023-02-06T03:16:49.760Z,1.30
2023-02-06T03:20:52.952Z,1.20
2023-02-06T03:24:58.198Z,1.20
2023-02-06T03:29:02.277Z,1.10
2023-02-06T03:33:07.692Z,1.10
2023-02-06T03:37:10.738Z,1.10
2023-02-06T03:41:15.493Z,1.10
2023-02-06T03:45:21.150Z,1.00
2023-02-06T03:49:26.441Z,1.00
2023-02-06T03:53:29.664Z,1.00
2023-02-06T03:57:34.980Z,1.00
2023-02-06T04:01:40.733Z,1.00
2023-02-06T04:05:43.568Z,0.90
2023-02-06T04:09:46.496Z,0.90
2023-02-06T04:13:50.612Z,0.80
2023-02-06T04:18:00.465Z,0.80
2023-02-06T04:22:04.673Z,0.80
2023-02-06T04:26:07.460Z,0.80
2023-02-06T04:30:12.586Z,0.80
2023-02-06T04:34:15.523Z,0.80
2023-02-06T04:38:18.602Z,0.70
2023-02-06T04:42:21.399Z,0.70
2023-02-06T04:46:25.792Z,0.70
2023-02-06T04:50:31.354Z,0.60
2023-02-06T04:54:34.160Z,0.60
2023-02-06T04:58:37.392Z,0.60
2023-02-06T05:02:41.587Z,0.50
2023-02-06T05:06:44.395Z,0.50
2023-02-06T05:10:47.190Z,0.50
2023-02-06T05:14:49.986Z,0.50
2023-02-06T05:18:55.644Z,0.50
2023-02-06T05:22:58.543Z,0.50
2023-02-06T05:27:01.421Z,0.50
2023-02-06T05:31:04.663Z,0.60
2023-02-06T05:35:09.286Z,0.60
2023-02-06T05:39:12.065Z,0.70
2023-02-06T05:43:14.880Z,0.70
2023-02-06T05:47:17.708Z,0.80
2023-02-06T05:51:21.861Z,0.80
2023-02-06T05:55:25.058Z,0.90
2023-02-06T05:59:27.863Z,0.90
2023-02-06T06:03:33.291Z,0.90
2023-02-06T06:07:37.629Z,0.90
2023-02-06T06:11:40.414Z,1.00
2023-02-06T06:15:43.359Z,1.00
2023-02-06T06:19:46.160Z,1.00
2023-02-06T06:23:50.372Z,1.00
2023-02-06T06:27:53.188Z,1.00
2023-02-06T06:31:56.496Z,1.00
2023-02-06T06:35:59.633Z,1.00
2023-02-06T06:40:03.788Z,1.00
2023-02-06T06:44:06.593Z,1.00
2023-02-06T06:48:09.425Z,1.10
2023-02-06T06:52:24.122Z,1.10
2023-02-06T06:56:28.850Z,1.10
2023-02-06T07:00:31.748Z,1.10
2023-02-06T07:04:34.587Z,1.10
2023-02-06T07:08:41.877Z,1.20
2023-02-06T07:12:46.502Z,1.20
2023-02-06T07:16:51.248Z,1.20
2023-02-06T07:20:54.035Z,1.20
2023-02-06T07:24:57.057Z,1.20
2023-02-06T07:29:01.279Z,1.20
2023-02-06T07:33:05.139Z,1.20
2023-02-06T07:37:08.069Z,1.30
2023-02-06T07:41:12.690Z,1.30
2023-02-06T07:45:17.162Z,1.30
2023-02-06T07:49:19.946Z,1.30
2023-02-06T07:53:22.892Z,1.40
2023-02-06T07:57:25.885Z,1.40
2023-02-06T08:01:30.117Z,1.40
2023-02-06T08:05:33.039Z,1.40
2023-02-06T08:09:35.822Z,1.50
2023-02-06T08:13:38.994Z,1.50
2023-02-06T08:17:43.166Z,1.60
2023-02-06T08:21:45.968Z,1.60
2023-02-06T08:25:48.777Z,1.70
2023-02-06T08:29:51.776Z,1.70
2023-02-06T08:33:56.036Z,1.80
2023-02-06T08:38:00.895Z,1.90
2023-02-06T08:42:03.716Z,2.00
2023-02-06T08:46:06.566Z,2.00
2023-02-06T08:50:10.839Z,2.10
2023-02-06T08:54:15.811Z,2.20
2023-02-06T08:58:18.640Z,2.20
2023-02-06T09:02:21.442Z,2.30
2023-02-06T09:06:26.013Z,2.30
2023-02-06T09:10:28.825Z,2.40
2023-02-06T09:14:32.053Z,2.40
2023-02-06T09:18:35.434Z,2.50
2023-02-06T09:22:39.573Z,2.50
2023-02-06T09:26:58.399Z,2.50
2023-02-06T09:31:02.179Z,2.60
2023-02-06T09:35:05.291Z,2.60
2023-02-06T09:39:09.785Z,2.60
2023-02-06T09:43:13.252Z,2.70
2023-02-06T09:47:19.423Z,2.70
2023-02-06T09:51:27.010Z,2.70
2023-02-06T09:55:34.322Z,2.70
2023-02-06T09:59:40.364Z,2.80
2023-02-06T10:03:48.897Z,2.80
2023-02-06T10:08:00.178Z,2.90
2023-02-06T10:12:06.810Z,2.90
2023-02-06T10:16:15.264Z,3.00
2023-02-06T10:20:19.907Z,3.00
2023-02-06T10:24:28.223Z,3.10
2023-02-06T10:28:33.654Z,3.20
2023-02-06T10:32:42.904Z,3.30
2023-02-06T10:36:51.889Z,3.40
2023-02-06T10:40:57.521Z,3.50
2023-02-06T10:45:18.964Z,3.60
2023-02-06T10:49:24.939Z,3.60
2023-02-06T10:53:30.048Z,3.70
2023-02-06T10:57:33.060Z,3.80
2023-02-06T11:01:39.099Z,3.80
2023-02-06T11:05:42.249Z,3.90
2023-02-06T11:09:45.339Z,4.00
2023-02-06T11:13:49.227Z,4.10
2023-02-06T11:17:53.992Z,4.10
2023-02-06T11:21:57.598Z,4.10
2023-02-06T11:26:06.339Z,4.20
2023-02-06T11:30:10.535Z,4.20
2023-02-06T11:34:22.113Z,4.30
2023-02-06T11:38:25.904Z,4.30
2023-02-06T11:42:28.716Z,4.40
2023-02-06T11:46:35.134Z,4.30
2023-02-06T11:50:41.304Z,4.40
2023-02-06T11:54:54.409Z,4.40
2023-02-06T11:59:06.959Z,4.50
2023-02-06T12:03:26.503Z,4.50
2023-02-06T12:07:33.848Z,4.50
2023-02-06T12:11:37.909Z,4.60
2023-02-06T12:15:48.159Z,4.60
2023-02-06T12:19:52.790Z,4.70
2023-02-06T12:23:57.887Z,4.70
2023-02-06T12:28:05.532Z,4.70
2023-02-06T12:32:15.082Z,4.70
2023-02-06T12:36:20.572Z,4.70
2023-02-06T12:40:30.732Z,4.80
2023-02-06T12:44:35.472Z,4.80
2023-02-06T12:48:40.674Z,4.90
2023-02-06T12:52:45.206Z,5.00
2023-02-06T12:56:50.339Z,5.00
2023-02-06T13:01:03.488Z,5.10
2023-02-06T13:05:08.865Z,5.20
2023-02-06T13:09:17.921Z,5.30
2023-02-06T13:13:30.222Z,5.30
2023-02-06T13:17:34.790Z,5.40
2023-02-06T13:21:37.550Z,5.50
2023-02-06T13:25:49.560Z,5.50
2023-02-06T13:29:54.374Z,5.60
2023-02-06T13:34:00.009Z,5.60
2023-02-06T13:38:25.528Z,5.70
2023-02-06T13:42:31.927Z,5.70
2023-02-06T13:46:52.891Z,5.80
2023-02-06T13:51:05.252Z,5.90
2023-02-06T13:55:15.665Z,5.90
2023-02-06T13:59:19.277Z,6.10
2023-02-06T14:03:26.705Z,6.20
2023-02-06T14:07:44.771Z,6.40
2023-02-06T14:12:12.270Z,6.50
2023-02-06T14:16:22.269Z,6.60
2023-02-06T14:20:29.592Z,6.60
2023-02-06T14:24:49.083Z,6.70
2023-02-06T14:28:56.582Z,6.70
2023-02-06T14:33:05.846Z,6.80
2023-02-06T14:37:18.236Z,6.80
2023-02-06T14:41:21.160Z,6.80
2023-02-06T14:45:31.970Z,6.80
2023-02-06T14:49:37.309Z,6.80
2023-02-06T14:53:43.053Z,6.90
2023-02-06T14:57:46.095Z,6.90
2023-02-06T15:01:52.068Z,6.90
2023-02-06T15:06:02.094Z,6.90
2023-02-06T15:10:08.472Z,6.90
2023-02-06T15:14:21.104Z,6.90
2023-02-06T15:18:24.196Z,6.80
2023-02-06T15:22:28.461Z,6.80
2023-02-06T15:26:35.624Z,6.70
2023-02-06T15:30:39.042Z,6.70
2023-02-06T15:34:44.885Z,6.70
2023-02-06T15:38:47.751Z,6.60
2023-02-06T15:42:53.735Z,6.60
2023-02-06T15:46:57.340Z,6.50
2023-02-06T15:51:01.075Z,6.40
2023-02-06T15:55:04.871Z,6.30
2023-02-06T15:59:15.820Z,6.20
2023-02-06T16:03:19.718Z,6.10
2023-02-06T16:07:23.589Z,5.90
2023-02-06T16:11:50.980Z,5.80
2023-02-06T16:16:18.424Z,5.70
2023-02-06T16:20:32.459Z,5.50
2023-02-06T16:24:36.033Z,5.40
2023-02-06T16:28:41.900Z,5.20
2023-02-06T16:32:46.286Z,5.10
2023-02-06T16:36:49.454Z,4.90
2023-02-06T16:40:52.448Z,4.80
2023-02-06T16:44:59.546Z,4.60
2023-02-06T16:49:07.721Z,4.50
2023-02-06T16:53:14.513Z,4.40
2023-02-06T16:57:20.940Z,4.30
2023-02-06T17:01:25.551Z,4.10
2023-02-06T17:05:31.497Z,4.00
2023-02-06T17:09:34.357Z,4.00
2023-02-06T17:13:37.258Z,3.80
2023-02-06T17:17:40.077Z,3.70
2023-02-06T17:21:44.311Z,3.60
2023-02-06T17:25:47.520Z,3.50
2023-02-06T17:29:50.571Z,3.40
2023-02-06T17:33:53.378Z,3.30
2023-02-06T17:37:57.500Z,3.20
2023-02-06T17:42:00.339Z,3.10
2023-02-06T17:46:03.208Z,3.00
2023-02-06T17:50:06.393Z,2.90
2023-02-06T17:54:10.981Z,2.80
2023-02-06T17:58:13.780Z,2.70
2023-02-06T18:02:16.563Z,2.60
2023-02-06T18:06:19.415Z,2.50
2023-02-06T18:10:24.608Z,2.50
2023-02-06T18:14:27.430Z,2.40
2023-02-06T18:18:31.136Z,2.40
2023-02-06T18:22:40.567Z,2.40
2023-02-06T18:26:44.780Z,2.40
2023-02-06T18:30:47.672Z,2.30
2023-02-06T18:34:50.497Z,2.30
2023-02-06T18:38:53.644Z,2.30
2023-02-06T18:42:58.113Z,2.20
2023-02-06T18:47:00.962Z,2.20
2023-02-06T18:51:07.618Z,2.20
2023-02-06T18:55:10.438Z,2.10
2023-02-06T18:59:14.695Z,2.10
2023-02-06T19:03:17.520Z,2.10
2023-02-06T19:07:20.338Z,2.00
2023-02-06T19:11:23.204Z,1.90
2023-02-06T19:15:27.354Z,1.80
2023-02-06T19:19:30.208Z,1.80
2023-02-06T19:23:34.791Z,1.70
2023-02-06T19:27:38.454Z,1.60
2023-02-06T19:31:42.834Z,1.60
2023-02-06T19:35:45.765Z,1.50
2023-02-06T19:39:48.892Z,1.40
2023-02-06T19:43:52.789Z,1.40
2023-02-06T19:47:57.147Z,1.30
2023-02-06T19:51:59.985Z,1.20
2023-02-06T19:56:02.812Z,1.20
2023-02-06T20:00:05.980Z,1.10
2023-02-06T20:04:11.184Z,1.10
2023-02-06T20:08:14.064Z,1.00
2023-02-06T20:12:18.088Z,0.90
2023-02-06T20:16:22.429Z,0.90
2023-02-06T20:20:26.755Z,0.80
2023-02-06T20:24:30.402Z,0.80
2023-02-06T20:28:33.282Z,0.70
2023-02-06T20:32:36.138Z,0.60
2023-02-06T20:36:41.775Z,0.60
2023-02-06T20:40:50.211Z,0.60
2023-02-06T20:44:53.105Z,0.50
2023-02-06T20:48:56.694Z,0.50
2023-02-06T20:53:00.820Z,0.40
2023-02-06T20:57:03.650Z,0.40
2023-02-06T21:01:12.744Z,0.40
2023-02-06T21:05:15.683Z,0.30
2023-02-06T21:13:23.728Z,0.20
2023-02-06T21:17:26.984Z,0.20
2023-02-06T21:21:30.034Z,0.10
2023-02-06T21:25:32.966Z,0.10
2023-02-06T21:29:37.340Z,0.00
2023-02-06T21:33:40.210Z,0.00
2023-02-06T21:37:43.085Z,-0.10
2023-02-06T21:41:46.592Z,-0.10
2023-02-06T21:45:50.998Z,-0.10
2023-02-06T21:49:53.982Z,-0.20
2023-02-06T21:53:57.118Z,-0.20
2023-02-06T21:58:01.018Z,-0.30
2023-02-06T22:02:05.372Z,-0.30
2023-02-06T22:06:09.238Z,-0.30
2023-02-06T22:10:12.234Z,-0.30
2023-02-06T22:14:16.529Z,-0.30
2023-02-06T22:18:21.699Z,-0.40
2023-02-06T22:22:25.254Z,-0.40
2023-02-06T22:26:28.489Z,-0.40
2023-02-06T22:30:31.350Z,-0.50
2023-02-06T22:34:35.592Z,-0.50
2023-02-06T22:38:38.778Z,-0.50
2023-02-06T22:42:41.652Z,-0.60
2023-02-06T22:46:45.473Z,-0.60
2023-02-06T22:50:49.701Z,-0.60
2023-02-06T22:54:52.649Z,-0.60
2023-02-06T22:58:55.666Z,-0.70
2023-02-06T23:02:58.614Z,-0.70
2023-02-06T23:07:02.947Z,-0.70
2023-02-06T23:11:06.089Z,-0.70
2023-02-06T23:15:09.448Z,-0.70
2023-02-06T23:19:13.172Z,-0.70
2023-02-06T23:23:17.318Z,-0.80
2023-02-06T23:27:21.027Z,-0.80
2023-02-06T23:31:23.905Z,-0.80
2023-02-06T23:35:26.948Z,-0.90
2023-02-06T23:43:34.308Z,-1.00
2023-02-06T23:47:37.419Z,-1.00
2023-02-06T23:51:40.364Z,-1.00
2023-02-06T23:55:43.171Z,-1.00
2023-02-06T23:59:47.292Z,-1.10
